Time;durP1;ratioP1;P1;durP2;ratioP2;P2;SDS_P1;SDS_P2;PMS_P1;PMS_P2;Temp;Humidity;BMP_temperature;BMP_pressure;BME280_temperature;BME280_humidity;BME280_pressure;Samples;Min_cycle;Max_cycle;Signal;HPM_P1;HPM_P2
2022/11/14 00:00:08;;;;;;;58.00;27.43;;;8.30;99.90;;;;;;5074314;28;20257;-80
2022/11/14 00:02:36;;;;;;;63.07;26.63;;;8.30;99.90;;;;;;5074256;28;20214;-80
2022/11/14 00:05:06;;;;;;;61.20;27.03;;;8.30;99.90;;;;;;5074271;28;20201;-81
2022/11/14 00:07:34;;;;;;;60.57;27.80;;;8.30;99.90;;;;;;5073261;28;20181;-80
2022/11/14 00:10:01;;;;;;;65.73;26.87;;;8.20;99.90;;;;;;5061064;28;20267;-80
2022/11/14 00:12:28;;;;;;;63.60;27.17;;;8.30;1.00;;;;;;5074498;28;20200;-80
2022/11/14 00:14:55;;;;;;;58.90;25.30;;;8.30;1.00;;;;;;5074155;28;20240;-81
2022/11/14 00:17:23;;;;;;;65.80;27.87;;;8.30;1.00;;;;;;5074198;28;20198;-80
2022/11/14 00:19:50;;;;;;;69.67;25.90;;;8.30;1.00;;;;;;5073899;28;20200;-80
2022/11/14 00:22:18;;;;;;;68.30;28.20;;;8.30;1.00;;;;;;5074107;28;20288;-80
2022/11/14 00:24:45;;;;;;;66.47;27.73;;;8.30;1.00;;;;;;5073736;28;20196;-80
2022/11/14 00:27:12;;;;;;;68.47;26.73;;;8.30;1.00;;;;;;5074076;28;20271;-80
2022/11/14 00:29:39;;;;;;;64.73;26.53;;;8.30;1.00;;;;;;5073986;28;20203;-80
2022/11/14 00:32:06;;;;;;;68.47;26.90;;;8.30;1.00;;;;;;5073732;28;20230;-80
2022/11/14 00:34:34;;;;;;;64.23;26.73;;;8.30;1.00;;;;;;5073424;28;20587;-79
2022/11/14 00:37:01;;;;;;;65.73;27.57;;;8.30;1.00;;;;;;5073760;28;20595;-80
2022/11/14 00:39:29;;;;;;;69.70;28.07;;;8.30;1.00;;;;;;5073717;28;20201;-80
2022/11/14 00:41:56;;;;;;;66.50;27.90;;;8.30;1.00;;;;;;5073813;28;20213;-80
2022/11/14 00:44:23;;;;;;;61.43;26.60;;;8.30;1.00;;;;;;5073983;28;20542;-80
2022/11/14 00:46:50;;;;;;;71.50;28.67;;;8.30;1.00;;;;;;5073330;28;20193;-80
2022/11/14 00:49:17;;;;;;;69.43;27.97;;;8.20;1.00;;;;;;5073301;28;20709;-80
2022/11/14 00:51:44;;;;;;;71.50;27.97;;;8.30;65.60;;;;;;5073517;28;20194;-80
2022/11/14 00:54:11;;;;;;;72.30;27.93;;;8.30;1.00;;;;;;5072444;28;20658;-79
2022/11/14 00:56:40;;;;;;;69.27;28.27;;;8.20;32.70;;;;;;5073377;28;20703;-80
2022/11/14 00:59:07;;;;;;;68.83;28.47;;;8.20;99.90;;;;;;5073225;28;20200;-80
2022/11/14 01:01:34;;;;;;;70.30;27.57;;;8.20;99.90;;;;;;5073410;28;20216;-80
2022/11/14 01:04:01;;;;;;;75.40;29.50;;;8.20;99.90;;;;;;5073323;28;20200;-80
2022/11/14 01:06:28;;;;;;;69.87;29.07;;;8.20;99.90;;;;;;5073378;28;20192;-81
2022/11/14 01:08:55;;;;;;;73.23;29.00;;;8.20;99.90;;;;;;5061836;28;20193;-81
2022/11/14 01:11:23;;;;;;;73.60;28.23;;;8.20;99.90;;;;;;5071141;28;20280;-81
2022/11/14 01:13:51;;;;;;;70.97;29.50;;;8.20;1.00;;;;;;5072893;28;20193;-80
2022/11/14 01:16:19;;;;;;;79.77;30.03;;;8.20;99.90;;;;;;5072937;28;20205;-80
2022/11/14 01:18:46;;;;;;;77.20;29.37;;;8.20;1.00;;;;;;5073067;28;20189;-80
2022/11/14 01:21:14;;;;;;;81.37;30.70;;;8.20;1.00;;;;;;5072389;28;20189;-79
2022/11/14 01:23:41;;;;;;;87.13;31.77;;;8.20;1.00;;;;;;5073041;28;20200;-80
2022/11/14 01:26:11;;;;;;;76.83;29.13;;;8.20;1.00;;;;;;5072935;28;20202;-80
2022/11/14 01:28:39;;;;;;;89.00;31.13;;;8.20;1.00;;;;;;5073038;28;20191;-80
2022/11/14 01:31:13;;;;;;;85.87;31.27;;;8.20;1.00;;;;;;5072870;28;20262;-80
2022/11/14 01:33:40;;;;;;;88.17;32.00;;;8.20;1.00;;;;;;5072183;28;20197;-80
2022/11/14 01:36:09;;;;;;;90.37;32.97;;;8.20;1.00;;;;;;5072741;28;20211;-80
2022/11/14 01:38:36;;;;;;;84.90;31.47;;;8.20;1.00;;;;;;5072662;28;20538;-80
2022/11/14 01:41:04;;;;;;;81.37;31.40;;;8.20;1.00;;;;;;5072312;28;20607;-79
2022/11/14 01:43:33;;;;;;;81.30;28.73;;;8.20;1.00;;;;;;5072220;28;20663;-79
2022/11/14 01:46:03;;;;;;;91.87;31.17;;;8.20;1.00;;;;;;5072247;28;20193;-80
2022/11/14 01:48:38;;;;;;;101.93;33.70;;;8.20;1.00;;;;;;5072513;28;20196;-79
2022/11/14 01:51:20;;;;;;;95.37;31.40;;;8.20;1.00;;;;;;5072260;28;20243;-81
2022/11/14 01:53:50;;;;;;;89.07;30.10;;;8.20;1.00;;;;;;5072160;28;20192;-80
2022/11/14 01:56:21;;;;;;;104.60;33.40;;;8.20;1.00;;;;;;5072523;28;20583;-80
2022/11/14 01:58:52;;;;;;;90.47;29.93;;;8.10;1.00;;;;;;5072102;28;20204;-80
2022/11/14 02:01:19;;;;;;;96.50;32.13;;;8.10;1.00;;;;;;5072130;28;20188;-80
2022/11/14 02:03:51;;;;;;;92.90;32.50;;;8.20;1.00;;;;;;5071356;28;20197;-80
2022/11/14 02:06:20;;;;;;;92.83;30.83;;;8.10;1.00;;;;;;5059410;28;20252;-80
2022/11/14 02:08:49;;;;;;;98.80;33.37;;;8.10;1.00;;;;;;5061704;28;20201;-79
2022/11/14 02:11:16;;;;;;;101.13;33.73;;;8.10;1.00;;;;;;5069117;28;20611;-80
2022/11/14 02:13:43;;;;;;;93.43;32.43;;;8.10;1.00;;;;;;5072383;28;20192;-80
2022/11/14 02:16:10;;;;;;;96.13;32.73;;;8.10;1.00;;;;;;5071730;28;20706;-81
2022/11/14 02:18:37;;;;;;;99.20;32.27;;;8.10;1.00;;;;;;5072158;28;20209;-81
2022/11/14 02:21:06;;;;;;;99.47;32.80;;;8.10;1.00;;;;;;5071934;28;20258;-80
2022/11/14 02:23:33;;;;;;;93.37;33.17;;;8.20;1.00;;;;;;5058126;28;20615;-81
2022/11/14 02:26:00;;;;;;;97.93;34.17;;;8.20;1.00;;;;;;5071981;28;20224;-81
2022/11/14 02:28:28;;;;;;;115.70;35.23;;;8.20;1.00;;;;;;5071932;28;20242;-81
2022/11/14 02:30:55;;;;;;;106.40;32.97;;;8.10;1.00;;;;;;5072135;28;20197;-81
2022/11/14 02:33:22;;;;;;;111.70;32.67;;;8.20;1.00;;;;;;5071486;28;20228;-80
2022/11/14 02:35:49;;;;;;;102.17;34.30;;;8.20;1.00;;;;;;5071662;28;20192;-80
2022/11/14 02:38:17;;;;;;;106.53;34.60;;;8.20;1.00;;;;;;5071587;28;20706;-81
2022/11/14 02:40:44;;;;;;;107.33;33.80;;;8.20;1.00;;;;;;5072109;28;20231;-80
2022/11/14 02:43:12;;;;;;;99.40;33.03;;;8.10;1.00;;;;;;5071944;28;20250;-80
2022/11/14 02:45:39;;;;;;;107.47;34.70;;;8.10;1.00;;;;;;5071451;28;20192;-80
2022/11/14 02:48:06;;;;;;;99.87;33.70;;;8.10;1.00;;;;;;5071975;28;20252;-80
2022/11/14 02:50:33;;;;;;;108.43;35.00;;;8.20;1.00;;;;;;5071261;28;20220;-80
2022/11/14 02:53:00;;;;;;;107.13;34.13;;;8.10;1.00;;;;;;5071647;28;20193;-80
2022/11/14 02:55:28;;;;;;;101.00;34.10;;;8.20;1.00;;;;;;5072020;28;20281;-81
2022/11/14 02:57:56;;;;;;;90.80;32.30;;;8.20;1.00;;;;;;5064117;28;20205;-80
2022/11/14 03:00:23;;;;;;;97.53;32.37;;;8.10;1.00;;;;;;5071341;28;20188;-81
2022/11/14 03:02:50;;;;;;;95.90;32.70;;;8.20;1.00;;;;;;5068028;28;20267;-80
2022/11/14 03:05:17;;;;;;;100.10;31.93;;;8.20;1.00;;;;;;5070663;28;20262;-80
2022/11/14 03:07:44;;;;;;;82.50;29.77;;;8.20;1.00;;;;;;5071654;28;20197;-80
2022/11/14 03:10:12;;;;;;;93.07;31.37;;;8.20;1.00;;;;;;5057199;28;20599;-80
2022/11/14 03:12:41;;;;;;;108.00;33.93;;;8.20;1.00;;;;;;5071749;28;20283;-80
2022/11/14 03:15:09;;;;;;;104.87;33.47;;;8.20;1.00;;;;;;5068686;28;20202;-80
2022/11/14 03:17:36;;;;;;;105.90;34.40;;;8.20;1.00;;;;;;5063115;28;20243;-80
2022/11/14 03:20:03;;;;;;;94.87;31.40;;;8.20;1.00;;;;;;5056242;28;20606;-80
2022/11/14 03:22:30;;;;;;;89.83;32.10;;;8.20;1.00;;;;;;5074589;28;20751;-80
2022/11/14 03:24:57;;;;;;;97.70;32.17;;;8.20;1.00;;;;;;5075507;28;20206;-80
2022/11/14 03:27:24;;;;;;;94.37;32.33;;;8.20;1.00;;;;;;5074874;28;20247;-80
2022/11/14 03:29:53;;;;;;;89.40;33.43;;;8.20;1.00;;;;;;5075205;28;20200;-80
2022/11/14 03:32:20;;;;;;;96.80;32.17;;;8.20;1.00;;;;;;5074588;28;20225;-80
2022/11/14 03:34:47;;;;;;;91.53;31.60;;;8.20;1.00;;;;;;5064879;28;20200;-80
2022/11/14 03:37:14;;;;;;;91.40;32.27;;;8.20;1.00;;;;;;5057568;28;20192;-80
2022/11/14 03:39:41;;;;;;;92.90;31.53;;;8.20;1.00;;;;;;5063494;28;20227;-80
2022/11/14 03:42:08;;;;;;;94.60;32.87;;;8.20;1.00;;;;;;5074720;28;20274;-81
2022/11/14 03:44:35;;;;;;;91.93;31.83;;;8.20;1.00;;;;;;5074607;28;20637;-81
2022/11/14 03:47:03;;;;;;;94.97;31.67;;;8.20;1.00;;;;;;5074806;28;20202;-80
2022/11/14 03:49:30;;;;;;;89.73;31.93;;;8.20;1.00;;;;;;5074420;28;20196;-81
2022/11/14 03:51:57;;;;;;;95.93;32.87;;;8.20;1.00;;;;;;5074588;28;20573;-80
2022/11/14 03:54:24;;;;;;;89.93;31.77;;;8.20;1.00;;;;;;5074881;28;20192;-80
2022/11/14 03:56:51;;;;;;;99.80;33.20;;;8.20;1.00;;;;;;5074199;28;20192;-80
2022/11/14 03:59:18;;;;;;;94.97;32.13;;;8.20;1.00;;;;;;5074495;28;20205;-80
2022/11/14 04:01:45;;;;;;;91.17;31.37;;;8.20;1.00;;;;;;5074563;28;20246;-80
2022/11/14 04:04:14;;;;;;;95.33;32.37;;;8.20;1.00;;;;;;5074492;28;20191;-80
2022/11/14 04:06:41;;;;;;;89.93;32.30;;;8.20;1.00;;;;;;5074423;28;20591;-81
2022/11/14 04:09:10;;;;;;;99.30;34.03;;;8.20;1.00;;;;;;5062175;28;20198;-81
2022/11/14 04:11:37;;;;;;;96.23;32.67;;;8.20;1.00;;;;;;5072482;28;20315;-81
2022/11/14 04:14:04;;;;;;;93.13;31.33;;;8.20;1.00;;;;;;5074140;28;20229;-80
2022/11/14 04:16:31;;;;;;;93.83;33.07;;;8.20;1.00;;;;;;5073983;28;20202;-80
2022/11/14 04:18:58;;;;;;;89.77;32.90;;;8.20;1.00;;;;;;5074595;28;20250;-80
2022/11/14 04:21:26;;;;;;;95.47;32.63;;;8.20;1.00;;;;;;5073330;28;20221;-80
2022/11/14 04:23:53;;;;;;;91.90;31.87;;;8.20;1.00;;;;;;5073788;28;20689;-80
2022/11/14 04:26:20;;;;;;;92.53;34.03;;;8.20;1.00;;;;;;5073777;28;20200;-80
2022/11/14 04:28:47;;;;;;;100.57;33.80;;;8.20;1.00;;;;;;5072665;28;20255;-80
2022/11/14 04:31:14;;;;;;;94.07;32.17;;;8.20;1.00;;;;;;5073295;28;20637;-81
2022/11/14 04:33:41;;;;;;;96.23;33.47;;;8.20;1.00;;;;;;5073134;28;20240;-80
2022/11/14 04:36:08;;;;;;;97.33;33.80;;;8.20;1.00;;;;;;5073013;28;20196;-79
2022/11/14 04:38:38;;;;;;;98.90;34.80;;;8.20;1.00;;;;;;5073490;28;20193;-80
2022/11/14 04:41:05;;;;;;;96.10;33.73;;;8.20;4.40;;;;;;5073565;28;20195;-80
2022/11/14 04:43:32;;;;;;;101.63;32.90;;;8.20;1.00;;;;;;5073280;28;20273;-80
2022/11/14 04:45:59;;;;;;;95.13;33.83;;;8.30;64.90;;;;;;5073761;28;20651;-81
2022/11/14 04:48:26;;;;;;;88.03;33.40;;;8.30;1.00;;;;;;5073713;28;20210;-80
2022/11/14 04:50:53;;;;;;;93.03;32.90;;;8.30;1.00;;;;;;5073334;28;20190;-80
2022/11/14 04:53:20;;;;;;;83.07;29.73;;;8.30;16.30;;;;;;5073339;28;20204;-80
2022/11/14 04:55:48;;;;;;;99.53;33.73;;;8.30;42.20;;;;;;5073360;28;20197;-81
2022/11/14 04:58:15;;;;;;;91.87;33.50;;;8.30;1.00;;;;;;5072931;28;20554;-80
2022/11/14 05:00:42;;;;;;;104.83;34.23;;;8.30;1.00;;;;;;5073271;28;20202;-80
2022/11/14 05:03:09;;;;;;;98.50;34.03;;;8.30;1.00;;;;;;5072811;28;20262;-80
2022/11/14 05:05:36;;;;;;;95.63;33.70;;;8.30;12.50;;;;;;5073078;28;20201;-80
2022/11/14 05:08:03;;;;;;;89.17;33.37;;;8.30;1.00;;;;;;5070109;28;20253;-80
2022/11/14 05:10:30;;;;;;;94.20;35.33;;;8.30;38.80;;;;;;5062276;28;20197;-80
2022/11/14 05:12:59;;;;;;;94.27;34.23;;;8.30;99.90;;;;;;5072958;28;20730;-80
2022/11/14 05:15:26;;;;;;;101.70;36.33;;;8.30;99.90;;;;;;5073185;28;20306;-81
2022/11/14 05:17:53;;;;;;;97.47;34.93;;;8.40;1.00;;;;;;5072780;28;20203;-80
2022/11/14 05:20:20;;;;;;;97.23;34.50;;;8.30;1.00;;;;;;5072793;28;20657;-81
2022/11/14 05:22:47;;;;;;;96.60;36.23;;;8.30;18.20;;;;;;5072890;28;20616;-79
2022/11/14 05:25:14;;;;;;;96.87;35.23;;;8.30;1.00;;;;;;5072830;28;20251;-82
2022/11/14 05:27:41;;;;;;;95.83;34.33;;;8.40;1.00;;;;;;5072807;28;20258;-83
2022/11/14 05:30:11;;;;;;;101.70;35.00;;;8.30;1.00;;;;;;5072238;28;20203;-84
2022/11/14 05:32:38;;;;;;;100.57;36.00;;;8.40;1.00;;;;;;5072466;28;20225;-84
2022/11/14 05:35:06;;;;;;;93.33;34.37;;;8.30;1.00;;;;;;5072654;28;20189;-84
2022/11/14 05:37:35;;;;;;;97.47;34.40;;;8.30;1.00;;;;;;5072874;28;20193;-84
2022/11/14 05:40:02;;;;;;;95.33;35.33;;;8.30;1.00;;;;;;5072287;28;20284;-83
2022/11/14 05:42:29;;;;;;;105.80;35.70;;;8.30;8.70;;;;;;5072514;28;20215;-84
2022/11/14 05:44:56;;;;;;;99.27;35.97;;;8.30;99.90;;;;;;5072700;28;20200;-83
2022/11/14 05:47:24;;;;;;;95.93;35.30;;;8.30;99.90;;;;;;5072506;28;20205;-82
2022/11/14 05:49:51;;;;;;;108.83;36.03;;;8.30;99.90;;;;;;5072602;28;20197;-84
2022/11/14 05:52:18;;;;;;;95.20;34.97;;;8.30;1.00;;;;;;5072212;28;20198;-83
2022/11/14 05:54:45;;;;;;;94.53;35.90;;;8.30;1.00;;;;;;5072662;28;20193;-83
2022/11/14 05:57:12;;;;;;;99.40;34.50;;;8.40;1.00;;;;;;5072269;28;20545;-83
2022/11/14 05:59:39;;;;;;;98.13;35.43;;;8.30;1.00;;;;;;5072216;28;20254;-84
2022/11/14 06:02:06;;;;;;;94.83;34.87;;;8.40;1.00;;;;;;5071984;28;20240;-84
2022/11/14 06:04:34;;;;;;;99.47;35.13;;;8.40;14.30;;;;;;5058041;28;20624;-84
2022/11/14 06:07:02;;;;;;;96.83;35.83;;;8.40;1.00;;;;;;5072508;28;20200;-83
2022/11/14 06:09:28;;;;;;;93.47;34.90;;;8.40;1.00;;;;;;5058411;28;20220;-83
2022/11/14 06:11:55;;;;;;;100.97;35.03;;;8.40;1.00;;;;;;5072357;28;20196;-83
2022/11/14 06:14:22;;;;;;;99.23;35.17;;;8.40;1.00;;;;;;5072305;28;20535;-84
2022/11/14 06:16:49;;;;;;;92.80;33.70;;;8.40;1.00;;;;;;5072213;28;20209;-84
2022/11/14 06:19:17;;;;;;;102.67;35.57;;;8.40;1.00;;;;;;5072327;28;20197;-82
2022/11/14 06:21:45;;;;;;;93.33;35.20;;;8.40;1.00;;;;;;5072037;28;20199;-84
2022/11/14 06:24:12;;;;;;;102.00;36.13;;;8.40;1.00;;;;;;5072196;28;20214;-83
2022/11/14 06:26:39;;;;;;;94.70;36.50;;;8.50;1.00;;;;;;5071710;28;20207;-83
2022/11/14 06:29:06;;;;;;;101.13;35.43;;;8.50;1.00;;;;;;5072174;28;20603;-83
2022/11/14 06:31:33;;;;;;;94.53;35.33;;;8.50;1.00;;;;;;5071673;28;20231;-84
2022/11/14 06:34:00;;;;;;;95.53;35.67;;;8.50;1.00;;;;;;5072818;28;20192;-83
2022/11/14 06:36:27;;;;;;;97.73;35.67;;;8.50;1.00;;;;;;5072113;28;20198;-84
2022/11/14 06:38:55;;;;;;;97.67;36.87;;;8.50;1.00;;;;;;5071627;28;20709;-84
2022/11/14 06:41:23;;;;;;;99.60;36.13;;;8.50;1.00;;;;;;5072220;28;20201;-84
2022/11/14 06:43:53;;;;;;;100.03;36.77;;;8.50;99.90;;;;;;5071792;28;20219;-83
2022/11/14 06:46:22;;;;;;;95.20;36.43;;;8.50;1.00;;;;;;5072029;28;20255;-83
2022/11/14 06:48:50;;;;;;;101.63;35.70;;;8.50;1.00;;;;;;5071611;28;20251;-83
2022/11/14 06:51:17;;;;;;;91.63;33.87;;;8.50;1.00;;;;;;5071994;28;20229;-83
2022/11/14 06:53:44;;;;;;;99.20;35.70;;;8.60;99.90;;;;;;5074975;28;20199;-83
2022/11/14 06:56:14;;;;;;;102.03;35.70;;;8.50;99.90;;;;;;5080253;28;20654;-82
2022/11/14 06:58:43;;;;;;;99.13;35.70;;;8.50;1.00;;;;;;5075194;28;20247;-82
2022/11/14 07:01:12;;;;;;;97.10;34.63;;;8.60;1.00;;;;;;5075733;28;20195;-85
2022/11/14 07:03:40;;;;;;;98.50;36.50;;;8.60;99.90;;;;;;5075736;28;20217;-83
2022/11/14 07:06:08;;;;;;;89.47;35.23;;;8.60;99.90;;;;;;5075269;28;20190;-82
2022/11/14 07:08:35;;;;;;;99.73;35.97;;;8.60;99.90;;;;;;5075929;28;20204;-83
2022/11/14 07:11:03;;;;;;;88.10;35.70;;;8.60;99.90;;;;;;5075829;28;20193;-83
2022/11/14 07:13:33;;;;;;;87.37;34.37;;;8.60;99.90;;;;;;5079275;28;20243;-86
2022/11/14 07:16:00;;;;;;;89.57;34.67;;;8.60;99.90;;;;;;5075004;28;20193;-84
2022/11/14 07:18:32;;;;;;;93.33;34.47;;;8.60;99.90;;;;;;5077427;28;20373;-85
2022/11/14 07:21:01;;;;;;;89.90;34.73;;;8.60;1.00;;;;;;5076854;28;20685;-83
2022/11/14 07:23:28;;;;;;;91.73;35.23;;;8.60;1.00;;;;;;5074810;28;20599;-83
2022/11/14 07:25:55;;;;;;;87.20;33.97;;;8.60;1.00;;;;;;5075083;28;20201;-83
2022/11/14 07:28:22;;;;;;;85.40;34.37;;;8.60;1.00;;;;;;5075026;28;20198;-84
2022/11/14 07:30:51;;;;;;;92.17;36.07;;;8.60;1.00;;;;;;5075181;28;20271;-83
2022/11/14 07:33:18;;;;;;;94.00;35.87;;;8.60;1.00;;;;;;5074768;28;20636;-82
2022/11/14 07:35:45;;;;;;;86.03;34.70;;;8.70;99.90;;;;;;5075034;28;20195;-82
2022/11/14 07:38:12;;;;;;;91.70;36.20;;;8.80;24.70;;;;;;5084107;28;20184;-83
2022/11/14 07:40:39;;;;;;;89.00;34.43;;;8.80;1.00;;;;;;5074970;28;20198;-83
2022/11/14 07:43:06;;;;;;;85.50;34.70;;;8.80;1.00;;;;;;5075325;28;20199;-84
2022/11/14 07:45:33;;;;;;;91.70;36.00;;;8.80;1.00;;;;;;5074645;28;20249;-85
2022/11/14 07:48:02;;;;;;;83.80;34.23;;;8.90;1.00;;;;;;5074436;28;20251;-84
2022/11/14 07:50:30;;;;;;;84.83;35.23;;;9.00;1.00;;;;;;5074946;28;20201;-82
2022/11/14 07:52:57;;;;;;;85.00;35.17;;;9.00;1.00;;;;;;5074690;28;20289;-82
2022/11/14 07:55:25;;;;;;;96.37;35.77;;;9.10;1.00;;;;;;5074504;28;20596;-82
2022/11/14 07:57:58;;;;;;;85.20;34.30;;;9.10;99.90;;;;;;5074615;28;20290;-82
2022/11/14 08:00:25;;;;;;;91.13;35.83;;;9.20;99.90;;;;;;5074794;28;20240;-82
2022/11/14 08:02:52;;;;;;;92.63;35.73;;;9.20;99.90;;;;;;5074179;28;20198;-83
2022/11/14 08:05:21;;;;;;;85.13;35.57;;;9.30;99.90;;;;;;5074349;28;20670;-83
2022/11/14 08:07:52;;;;;;;79.77;33.17;;;9.20;1.00;;;;;;5080748;28;20191;-85
2022/11/14 08:10:19;;;;;;;79.43;33.30;;;9.20;1.00;;;;;;5070040;28;20195;-83
2022/11/14 08:12:46;;;;;;;83.03;34.83;;;9.20;1.00;;;;;;5074398;28;20202;-82
2022/11/14 08:15:14;;;;;;;86.47;35.33;;;9.20;1.00;;;;;;5078066;28;20256;-82
2022/11/14 08:17:41;;;;;;;86.67;35.13;;;9.20;1.00;;;;;;5074575;28;20204;-83
2022/11/14 08:20:09;;;;;;;81.00;33.07;;;9.20;1.00;;;;;;5081296;28;20199;-82
2022/11/14 08:22:38;;;;;;;86.27;36.63;;;9.20;1.00;;;;;;5074378;28;20207;-81
2022/11/14 08:25:06;;;;;;;89.43;35.73;;;9.10;1.00;;;;;;5073976;28;20219;-81
2022/11/14 08:27:33;;;;;;;85.33;35.87;;;9.10;1.00;;;;;;5077481;28;20196;-82
2022/11/14 08:30:00;;;;;;;90.10;36.07;;;9.10;1.00;;;;;;5074058;28;20194;-83
2022/11/14 08:32:27;;;;;;;85.93;37.77;;;9.20;1.00;;;;;;5073608;28;20228;-82
2022/11/14 08:34:54;;;;;;;88.80;37.53;;;9.20;1.00;;;;;;5073865;28;20195;-83
2022/11/14 08:37:21;;;;;;;91.93;37.50;;;9.20;1.00;;;;;;5073996;28;20225;-81
2022/11/14 08:39:49;;;;;;;91.70;36.70;;;9.20;1.00;;;;;;5076945;28;20231;-82
2022/11/14 08:42:16;;;;;;;84.33;34.90;;;9.20;1.00;;;;;;5073777;28;20606;-82
2022/11/14 08:44:43;;;;;;;78.73;32.87;;;9.30;1.00;;;;;;5073747;28;20219;-82
2022/11/14 08:47:10;;;;;;;78.27;34.07;;;9.30;99.90;;;;;;5087260;28;20224;-82
2022/11/14 08:49:37;;;;;;;80.40;31.50;;;9.30;99.90;;;;;;5077499;28;20184;-82
2022/11/14 08:52:04;;;;;;;68.10;30.77;;;9.20;99.90;;;;;;5078076;28;20562;-83
2022/11/14 08:54:31;;;;;;;73.90;30.10;;;9.20;91.00;;;;;;5076549;28;20601;-83
2022/11/14 08:57:00;;;;;;;68.00;29.83;;;9.10;1.00;;;;;;5077487;28;20199;-83
2022/11/14 08:59:27;;;;;;;71.10;30.83;;;9.10;81.70;;;;;;5073500;28;20190;-83
2022/11/14 09:01:54;;;;;;;68.47;29.23;;;9.10;99.90;;;;;;5073426;28;20245;-82
2022/11/14 09:04:21;;;;;;;71.27;31.03;;;9.10;56.00;;;;;;5072931;28;20578;-83
2022/11/14 09:06:48;;;;;;;67.83;30.20;;;9.10;87.40;;;;;;5073305;28;20197;-84
2022/11/14 09:09:15;;;;;;;78.53;31.60;;;9.20;50.60;;;;;;5073396;28;20193;-83
2022/11/14 09:11:42;;;;;;;72.83;30.93;;;9.10;21.70;;;;;;5073395;28;20196;-82
2022/11/14 09:14:10;;;;;;;74.17;31.87;;;9.20;1.00;;;;;;5073135;28;20227;-83
2022/11/14 09:16:37;;;;;;;69.07;31.33;;;9.20;1.00;;;;;;5072295;28;20255;-83
2022/11/14 09:19:04;;;;;;;75.20;31.73;;;9.10;1.00;;;;;;5073119;28;20194;-83
2022/11/14 09:21:31;;;;;;;76.73;31.67;;;9.10;1.00;;;;;;5073042;28;20191;-82
2022/11/14 09:23:58;;;;;;;75.03;31.70;;;9.10;1.00;;;;;;5072625;28;20227;-82
2022/11/14 09:26:25;;;;;;;75.17;31.03;;;9.20;1.00;;;;;;5072618;28;20729;-85
2022/11/14 09:28:52;;;;;;;65.73;31.17;;;9.30;1.00;;;;;;5073047;28;20269;-83
2022/11/14 09:31:21;;;;;;;66.47;30.70;;;9.40;1.00;;;;;;5072951;28;20195;-83
2022/11/14 09:33:48;;;;;;;68.77;29.63;;;9.40;1.00;;;;;;5077249;28;20203;-83
2022/11/14 09:36:17;;;;;;;71.20;31.20;;;9.60;1.00;;;;;;5072446;28;20195;-83
2022/11/14 09:38:45;;;;;;;68.53;30.13;;;9.60;1.00;;;;;;5072707;28;20693;-83
2022/11/14 09:41:24;;;;;;;70.73;29.27;;;9.70;99.90;;;;;;5073019;28;20202;-83
2022/11/14 09:44:09;;;;;;;67.43;30.63;;;9.70;99.90;;;;;;5072274;28;20671;-83
2022/11/14 09:46:43;;;;;;;65.87;30.10;;;9.70;99.90;;;;;;5072911;28;20192;-83
2022/11/14 09:49:20;;;;;;;65.17;30.23;;;9.80;99.90;;;;;;5072695;28;20193;-84
2022/11/14 09:51:52;;;;;;;63.30;28.53;;;9.90;99.90;;;;;;5072445;28;20242;-84
2022/11/14 09:54:23;;;;;;;63.73;28.57;;;9.90;99.90;;;;;;5072569;28;20196;-84
2022/11/14 09:56:51;;;;;;;56.77;27.77;;;10.00;99.90;;;;;;5072561;28;20193;-83
2022/11/14 09:59:18;;;;;;;62.63;27.23;;;10.00;99.90;;;;;;5072312;28;20600;-83
2022/11/14 10:01:55;;;;;;;58.47;27.43;;;10.10;84.00;;;;;;5072452;28;20189;-83
2022/11/14 10:04:37;;;;;;;59.17;27.73;;;10.10;46.50;;;;;;5072292;28;20225;-83
2022/11/14 10:07:16;;;;;;;54.20;27.43;;;10.10;98.40;;;;;;5072055;28;20238;-82
2022/11/14 10:09:52;;;;;;;61.70;27.67;;;10.20;21.00;;;;;;5072761;28;22222;-83
2022/11/14 10:12:23;;;;;;;56.67;28.77;;;10.30;1.00;;;;;;5072398;28;20653;-83
2022/11/14 10:15:10;;;;;;;56.10;27.83;;;10.30;1.00;;;;;;5071876;28;20230;-83
2022/11/14 10:18:08;;;;;;;59.67;26.97;;;10.40;1.00;;;;;;5072122;28;20666;-85
2022/11/14 10:20:42;;;;;;;58.13;27.40;;;10.40;1.00;;;;;;5056584;28;20201;-83
2022/11/14 10:23:28;;;;;;;56.10;27.17;;;10.40;1.00;;;;;;5072117;28;20196;-86
2022/11/14 10:26:03;;;;;;;52.60;27.17;;;10.30;1.00;;;;;;5071973;28;20206;-82
2022/11/14 10:28:40;;;;;;;57.33;28.20;;;10.20;1.00;;;;;;5074711;28;20195;-83
2022/11/14 10:31:19;;;;;;;57.83;28.10;;;10.20;1.00;;;;;;5076102;28;20282;-85
2022/11/14 10:33:56;;;;;;;59.03;28.37;;;10.20;1.00;;;;;;5076455;28;20200;-83
2022/11/14 10:36:38;;;;;;;57.47;27.03;;;10.20;1.00;;;;;;5076351;28;20202;-83
2022/11/14 10:39:14;;;;;;;57.00;27.70;;;10.30;1.00;;;;;;5076040;28;20185;-85
2022/11/14 10:41:43;;;;;;;61.67;28.00;;;10.30;1.00;;;;;;5077146;28;20653;-83
2022/11/14 10:44:16;;;;;;;52.17;27.43;;;10.40;1.00;;;;;;5071689;28;20214;-84
2022/11/14 10:46:47;;;;;;;60.50;27.80;;;10.40;1.00;;;;;;5082972;28;20240;-82
2022/11/14 10:49:20;;;;;;;59.97;27.80;;;10.40;1.00;;;;;;5079546;28;20204;-85
2022/11/14 10:51:50;;;;;;;56.80;28.93;;;10.40;1.00;;;;;;5074359;28;20664;-83
2022/11/14 10:54:21;;;;;;;58.20;27.57;;;10.40;1.00;;;;;;5071800;28;20192;-84
2022/11/14 10:56:49;;;;;;;59.93;28.40;;;10.40;1.00;;;;;;5074463;28;20189;-84
2022/11/14 10:59:16;;;;;;;60.90;27.47;;;10.40;1.00;;;;;;5075713;28;20554;-85
2022/11/14 11:01:45;;;;;;;54.03;26.93;;;10.40;1.00;;;;;;5080745;28;20189;-82
2022/11/14 11:04:26;;;;;;;55.83;26.77;;;10.60;1.00;;;;;;5073914;28;20226;-82
2022/11/14 11:06:55;;;;;;;55.23;26.60;;;10.60;99.90;;;;;;5074959;28;20199;-83
2022/11/14 11:12:15;;;;;;;56.93;26.83;;;10.60;99.90;;;;;;5061471;28;20548;-84
2022/11/14 11:14:42;;;;;;;52.63;26.70;;;10.60;99.90;;;;;;5075080;28;20243;-85
2022/11/14 11:17:23;;;;;;;58.83;27.37;;;10.70;99.90;;;;;;5075262;28;20246;-83
2022/11/14 11:19:51;;;;;;;54.20;26.87;;;10.70;99.90;;;;;;5075666;28;20226;-85
2022/11/14 11:22:30;;;;;;;55.03;26.90;;;10.80;99.90;;;;;;5075442;28;20250;-82
2022/11/14 11:24:57;;;;;;;56.10;26.70;;;10.90;99.90;;;;;;5078379;28;20259;-82
2022/11/14 11:27:26;;;;;;;50.73;26.30;;;10.90;99.90;;;;;;5074738;28;20662;-83
2022/11/14 11:30:08;;;;;;;55.67;26.10;;;11.00;99.90;;;;;;5074982;28;20256;-84
2022/11/14 11:32:35;;;;;;;51.97;26.17;;;10.90;99.90;;;;;;5074871;28;20230;-82
2022/11/14 11:35:11;;;;;;;50.67;25.37;;;10.90;99.90;;;;;;5074855;28;20243;-81
2022/11/14 11:37:44;;;;;;;51.00;25.60;;;10.90;99.90;;;;;;5063361;28;20248;-81
2022/11/14 11:40:17;;;;;;;54.23;27.87;;;10.80;99.90;;;;;;5073552;28;20670;-82
2022/11/14 11:42:49;;;;;;;56.70;26.50;;;10.80;99.90;;;;;;5074831;28;20528;-82
2022/11/14 11:45:19;;;;;;;58.33;30.77;;;10.80;99.90;;;;;;5075365;28;20203;-85
2022/11/14 11:47:51;;;;;;;50.20;27.03;;;10.90;99.90;;;;;;5079900;28;20170;-82
2022/11/14 11:50:23;;;;;;;53.07;27.77;;;11.00;99.90;;;;;;5075324;28;20193;-83
2022/11/14 11:52:59;;;;;;;53.03;26.80;;;11.10;99.90;;;;;;5074982;28;20273;-87
2022/11/14 11:55:30;;;;;;;52.93;27.07;;;11.20;90.60;;;;;;5074680;28;20651;-83
2022/11/14 11:58:04;;;;;;;52.57;26.27;;;11.10;61.90;;;;;;5074300;28;20190;-82
2022/11/14 12:00:31;;;;;;;52.87;26.40;;;11.10;99.90;;;;;;5074677;28;20228;-85
2022/11/14 12:02:59;;;;;;;53.27;26.97;;;11.20;90.00;;;;;;5074861;28;20205;-84
2022/11/14 12:05:38;;;;;;;48.43;26.20;;;11.20;1.00;;;;;;5074704;28;20214;-83
2022/11/14 12:08:08;;;;;;;48.73;26.20;;;11.10;1.00;;;;;;5074508;28;20195;-83
2022/11/14 12:10:39;;;;;;;51.80;27.10;;;11.00;1.00;;;;;;5074574;28;20194;-82
2022/11/14 12:13:50;;;;;;;52.70;26.53;;;10.90;1.00;;;;;;5074767;28;20242;-86
2022/11/14 12:16:32;;;;;;;50.80;25.43;;;10.70;40.70;;;;;;5074754;28;20197;-83
2022/11/14 12:19:41;;;;;;;50.20;26.17;;;10.70;81.50;;;;;;5073873;28;20197;-84
2022/11/14 12:22:38;;;;;;;52.07;27.57;;;10.70;66.70;;;;;;5072646;28;20235;-83
2022/11/14 12:25:28;;;;;;;50.57;25.57;;;10.60;88.70;;;;;;5066399;28;20231;-83
2022/11/14 12:28:11;;;;;;;52.67;26.13;;;10.60;99.90;;;;;;5073420;28;20246;-82
2022/11/14 12:30:40;;;;;;;54.87;27.90;;;10.70;99.90;;;;;;5073343;28;20654;-82
2022/11/14 12:33:12;;;;;;;49.43;26.07;;;10.70;99.90;;;;;;5073474;28;20568;-83
2022/11/14 12:35:49;;;;;;;55.03;28.17;;;10.80;99.90;;;;;;5070028;28;20654;-82
2022/11/14 12:38:19;;;;;;;56.97;28.10;;;10.90;33.40;;;;;;5074929;28;20265;-88
2022/11/14 12:40:52;;;;;;;54.60;27.53;;;10.80;1.00;;;;;;5076338;28;20243;-84
2022/11/14 12:43:41;;;;;;;55.40;27.83;;;10.70;1.00;;;;;;5081255;28;20220;-86
2022/11/14 12:46:10;;;;;;;57.97;27.93;;;10.60;1.00;;;;;;5080953;28;20210;-84
2022/11/14 12:48:41;;;;;;;55.60;26.97;;;10.50;50.60;;;;;;5076579;28;20194;-85
2022/11/14 12:51:41;;;;;;;53.93;28.13;;;10.40;80.40;;;;;;5079683;28;20628;-83
2022/11/14 12:54:42;;;;;;;53.60;27.20;;;10.30;99.90;;;;;;5072515;28;20281;-85